sensor_id;sensor_type;location;lat;lon;timestamp;P1;durP1;ratioP1;P2;durP2;ratioP2
43626;SDS011;29217;52.586;13.442;2023-04-21T00:01:16;11.05;;;6.20;;
43626;SDS011;29217;52.586;13.442;2023-04-21T00:03:41;14.05;;;6.38;;
43626;SDS011;29217;52.586;13.442;2023-04-21T00:06:08;11.82;;;6.07;;
43626;SDS011;29217;52.586;13.442;2023-04-21T00:08:34;15.73;;;6.78;;
43626;SDS011;29217;52.586;13.442;2023-04-21T00:11:06;12.38;;;6.40;;
43626;SDS011;29217;52.586;13.442;2023-04-21T00:13:33;10.57;;;5.28;;
43626;SDS011;29217;52.586;13.442;2023-04-21T00:16:02;10.77;;;5.65;;
43626;SDS011;29217;52.586;13.442;2023-04-21T00:18:28;9.77;;;5.75;;
43626;SDS011;29217;52.586;13.442;2023-04-21T00:20:54;11.20;;;5.60;;
43626;SDS011;29217;52.586;13.442;2023-04-21T00:23:20;11.00;;;5.38;;
43626;SDS011;29217;52.586;13.442;2023-04-21T00:25:46;13.40;;;5.82;;
43626;SDS011;29217;52.586;13.442;2023-04-21T00:28:11;12.32;;;5.90;;
43626;SDS011;29217;52.586;13.442;2023-04-21T00:30:37;13.80;;;5.30;;
43626;SDS011;29217;52.586;13.442;2023-04-21T00:33:02;12.80;;;5.55;;
43626;SDS011;29217;52.586;13.442;2023-04-21T00:35:28;8.60;;;5.30;;
43626;SDS011;29217;52.586;13.442;2023-04-21T00:37:53;11.50;;;6.10;;
43626;SDS011;29217;52.586;13.442;2023-04-21T00:40:19;11.98;;;5.82;;
43626;SDS011;29217;52.586;13.442;2023-04-21T00:42:45;11.27;;;5.32;;
43626;SDS011;29217;52.586;13.442;2023-04-21T00:45:10;10.40;;;5.72;;
43626;SDS011;29217;52.586;13.442;2023-04-21T00:47:36;10.93;;;5.30;;
43626;SDS011;29217;52.586;13.442;2023-04-21T00:50:02;11.55;;;5.68;;
43626;SDS011;29217;52.586;13.442;2023-04-21T00:52:28;10.43;;;5.68;;
43626;SDS011;29217;52.586;13.442;2023-04-21T00:54:54;14.48;;;6.10;;
43626;SDS011;29217;52.586;13.442;2023-04-21T00:57:21;10.93;;;5.70;;
43626;SDS011;29217;52.586;13.442;2023-04-21T00:59:47;10.52;;;4.82;;
43626;SDS011;29217;52.586;13.442;2023-04-21T01:02:17;9.23;;;5.28;;
43626;SDS011;29217;52.586;13.442;2023-04-21T01:04:43;10.27;;;5.20;;
43626;SDS011;29217;52.586;13.442;2023-04-21T01:07:09;9.77;;;5.22;;
43626;SDS011;29217;52.586;13.442;2023-04-21T01:09:35;13.75;;;5.78;;
43626;SDS011;29217;52.586;13.442;2023-04-21T01:12:02;7.38;;;5.20;;
43626;SDS011;29217;52.586;13.442;2023-04-21T01:14:28;12.43;;;6.57;;
43626;SDS011;29217;52.586;13.442;2023-04-21T01:16:54;14.35;;;5.80;;
43626;SDS011;29217;52.586;13.442;2023-04-21T01:19:21;11.27;;;6.05;;
43626;SDS011;29217;52.586;13.442;2023-04-21T01:21:48;15.27;;;7.07;;
43626;SDS011;29217;52.586;13.442;2023-04-21T01:24:15;16.23;;;8.30;;
43626;SDS011;29217;52.586;13.442;2023-04-21T01:26:41;15.73;;;8.57;;
43626;SDS011;29217;52.586;13.442;2023-04-21T01:29:08;13.15;;;7.88;;
43626;SDS011;29217;52.586;13.442;2023-04-21T01:31:34;21.45;;;8.98;;
43626;SDS011;29217;52.586;13.442;2023-04-21T01:34:02;20.88;;;8.90;;
43626;SDS011;29217;52.586;13.442;2023-04-21T01:36:28;17.33;;;9.25;;
43626;SDS011;29217;52.586;13.442;2023-04-21T01:38:55;18.17;;;8.00;;
43626;SDS011;29217;52.586;13.442;2023-04-21T01:41:21;13.93;;;8.35;;
43626;SDS011;29217;52.586;13.442;2023-04-21T01:43:47;15.30;;;9.38;;
43626;SDS011;29217;52.586;13.442;2023-04-21T01:46:12;19.08;;;8.90;;
43626;SDS011;29217;52.586;13.442;2023-04-21T01:48:38;19.23;;;8.60;;
43626;SDS011;29217;52.586;13.442;2023-04-21T01:51:03;21.52;;;8.32;;
43626;SDS011;29217;52.586;13.442;2023-04-21T01:53:29;12.52;;;8.05;;
43626;SDS011;29217;52.586;13.442;2023-04-21T01:55:57;19.35;;;8.98;;
43626;SDS011;29217;52.586;13.442;2023-04-21T01:58:23;12.95;;;7.60;;
43626;SDS011;29217;52.586;13.442;2023-04-21T02:00:48;16.05;;;8.35;;
43626;SDS011;29217;52.586;13.442;2023-04-21T02:03:14;19.35;;;8.48;;
43626;SDS011;29217;52.586;13.442;2023-04-21T02:05:39;14.00;;;8.25;;
43626;SDS011;29217;52.586;13.442;2023-04-21T02:08:05;16.25;;;8.98;;
43626;SDS011;29217;52.586;13.442;2023-04-21T02:10:30;14.32;;;8.13;;
43626;SDS011;29217;52.586;13.442;2023-04-21T02:12:56;15.30;;;7.95;;
43626;SDS011;29217;52.586;13.442;2023-04-21T02:15:22;14.35;;;7.90;;
43626;SDS011;29217;52.586;13.442;2023-04-21T02:17:47;12.82;;;8.05;;
43626;SDS011;29217;52.586;13.442;2023-04-21T02:20:13;14.07;;;8.45;;
43626;SDS011;29217;52.586;13.442;2023-04-21T02:22:39;15.88;;;8.70;;
43626;SDS011;29217;52.586;13.442;2023-04-21T02:25:04;15.30;;;8.63;;
43626;SDS011;29217;52.586;13.442;2023-04-21T02:27:30;13.13;;;8.50;;
43626;SDS011;29217;52.586;13.442;2023-04-21T02:29:56;15.20;;;9.05;;
43626;SDS011;29217;52.586;13.442;2023-04-21T02:32:21;13.70;;;8.18;;
43626;SDS011;29217;52.586;13.442;2023-04-21T02:34:47;14.15;;;7.55;;
43626;SDS011;29217;52.586;13.442;2023-04-21T02:37:13;15.20;;;7.88;;
43626;SDS011;29217;52.586;13.442;2023-04-21T02:39:38;13.98;;;8.23;;
43626;SDS011;29217;52.586;13.442;2023-04-21T02:42:04;15.13;;;8.38;;
43626;SDS011;29217;52.586;13.442;2023-04-21T02:44:29;14.07;;;8.90;;
43626;SDS011;29217;52.586;13.442;2023-04-21T02:46:55;13.82;;;9.13;;
43626;SDS011;29217;52.586;13.442;2023-04-21T02:49:20;18.98;;;9.45;;
43626;SDS011;29217;52.586;13.442;2023-04-21T02:51:46;14.30;;;7.90;;
43626;SDS011;29217;52.586;13.442;2023-04-21T02:54:11;13.80;;;8.35;;
43626;SDS011;29217;52.586;13.442;2023-04-21T02:56:37;13.32;;;8.60;;
43626;SDS011;29217;52.586;13.442;2023-04-21T02:59:03;13.55;;;8.68;;
43626;SDS011;29217;52.586;13.442;2023-04-21T03:01:28;14.50;;;8.73;;
43626;SDS011;29217;52.586;13.442;2023-04-21T03:03:54;15.85;;;8.75;;
43626;SDS011;29217;52.586;13.442;2023-04-21T03:06:19;12.70;;;8.55;;
43626;SDS011;29217;52.586;13.442;2023-04-21T03:08:45;15.48;;;8.40;;
43626;SDS011;29217;52.586;13.442;2023-04-21T03:11:10;13.48;;;8.25;;
43626;SDS011;29217;52.586;13.442;2023-04-21T03:13:36;15.90;;;8.20;;
43626;SDS011;29217;52.586;13.442;2023-04-21T03:16:02;15.23;;;8.45;;
43626;SDS011;29217;52.586;13.442;2023-04-21T03:18:27;15.82;;;8.10;;
43626;SDS011;29217;52.586;13.442;2023-04-21T03:20:58;16.40;;;8.27;;
43626;SDS011;29217;52.586;13.442;2023-04-21T03:23:24;13.32;;;7.85;;
43626;SDS011;29217;52.586;13.442;2023-04-21T03:25:49;14.88;;;8.88;;
43626;SDS011;29217;52.586;13.442;2023-04-21T03:28:15;12.63;;;8.60;;
43626;SDS011;29217;52.586;13.442;2023-04-21T03:30:41;20.23;;;10.15;;
43626;SDS011;29217;52.586;13.442;2023-04-21T03:33:06;13.70;;;8.82;;
43626;SDS011;29217;52.586;13.442;2023-04-21T03:35:32;13.73;;;8.50;;
43626;SDS011;29217;52.586;13.442;2023-04-21T03:37:58;14.82;;;8.55;;
43626;SDS011;29217;52.586;13.442;2023-04-21T03:40:24;17.55;;;8.75;;
43626;SDS011;29217;52.586;13.442;2023-04-21T03:42:49;13.75;;;8.65;;
43626;SDS011;29217;52.586;13.442;2023-04-21T03:45:15;16.33;;;8.13;;
43626;SDS011;29217;52.586;13.442;2023-04-21T03:47:43;14.30;;;8.60;;
43626;SDS011;29217;52.586;13.442;2023-04-21T03:50:09;14.85;;;9.32;;
43626;SDS011;29217;52.586;13.442;2023-04-21T03:52:34;16.08;;;8.68;;
43626;SDS011;29217;52.586;13.442;2023-04-21T03:55:00;18.17;;;8.63;;
43626;SDS011;29217;52.586;13.442;2023-04-21T03:57:25;14.50;;;8.40;;
43626;SDS011;29217;52.586;13.442;2023-04-21T03:59:51;14.95;;;8.68;;
43626;SDS011;29217;52.586;13.442;2023-04-21T04:02:17;16.20;;;10.13;;
43626;SDS011;29217;52.586;13.442;2023-04-21T04:04:42;18.40;;;10.15;;
43626;SDS011;29217;52.586;13.442;2023-04-21T04:07:08;18.35;;;9.80;;
43626;SDS011;29217;52.586;13.442;2023-04-21T04:09:34;16.30;;;9.52;;
43626;SDS011;29217;52.586;13.442;2023-04-21T04:11:59;22.88;;;10.15;;
43626;SDS011;29217;52.586;13.442;2023-04-21T04:14:27;18.77;;;9.90;;
43626;SDS011;29217;52.586;13.442;2023-04-21T04:16:53;15.75;;;10.55;;
43626;SDS011;29217;52.586;13.442;2023-04-21T04:19:18;18.65;;;10.73;;
43626;SDS011;29217;52.586;13.442;2023-04-21T04:21:44;17.27;;;9.65;;
43626;SDS011;29217;52.586;13.442;2023-04-21T04:24:10;16.45;;;10.60;;
43626;SDS011;29217;52.586;13.442;2023-04-21T04:26:36;21.13;;;10.32;;
43626;SDS011;29217;52.586;13.442;2023-04-21T04:29:02;15.48;;;9.60;;
43626;SDS011;29217;52.586;13.442;2023-04-21T04:31:30;18.85;;;9.95;;
43626;SDS011;29217;52.586;13.442;2023-04-21T04:33:56;18.00;;;9.93;;
43626;SDS011;29217;52.586;13.442;2023-04-21T04:36:22;16.23;;;9.95;;
43626;SDS011;29217;52.586;13.442;2023-04-21T04:38:49;19.73;;;9.63;;
43626;SDS011;29217;52.586;13.442;2023-04-21T04:41:15;16.92;;;8.93;;
43626;SDS011;29217;52.586;13.442;2023-04-21T04:43:40;16.25;;;9.75;;
43626;SDS011;29217;52.586;13.442;2023-04-21T04:46:07;16.15;;;8.77;;
43626;SDS011;29217;52.586;13.442;2023-04-21T04:48:35;18.45;;;8.93;;
43626;SDS011;29217;52.586;13.442;2023-04-21T04:51:00;17.08;;;9.05;;
43626;SDS011;29217;52.586;13.442;2023-04-21T04:53:29;18.40;;;9.07;;
43626;SDS011;29217;52.586;13.442;2023-04-21T04:55:54;17.38;;;9.52;;
43626;SDS011;29217;52.586;13.442;2023-04-21T04:58:22;18.17;;;9.45;;
43626;SDS011;29217;52.586;13.442;2023-04-21T05:00:48;16.05;;;9.43;;
43626;SDS011;29217;52.586;13.442;2023-04-21T05:03:14;16.08;;;9.38;;
43626;SDS011;29217;52.586;13.442;2023-04-21T05:05:40;17.35;;;9.15;;
43626;SDS011;29217;52.586;13.442;2023-04-21T05:08:05;17.73;;;9.77;;
43626;SDS011;29217;52.586;13.442;2023-04-21T05:10:31;16.20;;;9.23;;
43626;SDS011;29217;52.586;13.442;2023-04-21T05:12:56;15.52;;;8.85;;
43626;SDS011;29217;52.586;13.442;2023-04-21T05:15:22;19.23;;;9.48;;
43626;SDS011;29217;52.586;13.442;2023-04-21T05:17:48;14.55;;;8.95;;
43626;SDS011;29217;52.586;13.442;2023-04-21T05:20:13;17.05;;;9.10;;
43626;SDS011;29217;52.586;13.442;2023-04-21T05:22:39;16.83;;;9.55;;
43626;SDS011;29217;52.586;13.442;2023-04-21T05:25:05;17.92;;;8.88;;
43626;SDS011;29217;52.586;13.442;2023-04-21T05:27:31;17.70;;;8.80;;
43626;SDS011;29217;52.586;13.442;2023-04-21T05:30:00;15.55;;;9.13;;
43626;SDS011;29217;52.586;13.442;2023-04-21T05:32:26;16.33;;;9.38;;
43626;SDS011;29217;52.586;13.442;2023-04-21T05:34:53;13.25;;;8.07;;
43626;SDS011;29217;52.586;13.442;2023-04-21T05:37:18;15.20;;;9.32;;
43626;SDS011;29217;52.586;13.442;2023-04-21T05:39:44;16.02;;;9.52;;
43626;SDS011;29217;52.586;13.442;2023-04-21T05:42:09;22.40;;;8.75;;
43626;SDS011;29217;52.586;13.442;2023-04-21T05:44:35;13.10;;;7.97;;
43626;SDS011;29217;52.586;13.442;2023-04-21T05:47:03;13.05;;;8.75;;
43626;SDS011;29217;52.586;13.442;2023-04-21T05:49:29;16.38;;;8.82;;
43626;SDS011;29217;52.586;13.442;2023-04-21T05:51:55;15.30;;;8.48;;
43626;SDS011;29217;52.586;13.442;2023-04-21T05:54:21;15.65;;;9.10;;
43626;SDS011;29217;52.586;13.442;2023-04-21T05:56:46;12.63;;;7.90;;
43626;SDS011;29217;52.586;13.442;2023-04-21T05:59:12;16.85;;;8.30;;
43626;SDS011;29217;52.586;13.442;2023-04-21T06:01:38;14.80;;;8.95;;
43626;SDS011;29217;52.586;13.442;2023-04-21T06:04:03;12.00;;;8.32;;
43626;SDS011;29217;52.586;13.442;2023-04-21T06:06:29;13.25;;;8.57;;
43626;SDS011;29217;52.586;13.442;2023-04-21T06:08:55;14.43;;;8.15;;
43626;SDS011;29217;52.586;13.442;2023-04-21T06:11:21;16.35;;;8.27;;
43626;SDS011;29217;52.586;13.442;2023-04-21T06:13:47;15.15;;;8.90;;
43626;SDS011;29217;52.586;13.442;2023-04-21T06:16:13;15.20;;;8.45;;
43626;SDS011;29217;52.586;13.442;2023-04-21T06:18:39;15.05;;;8.20;;
43626;SDS011;29217;52.586;13.442;2023-04-21T06:21:05;13.00;;;7.95;;
43626;SDS011;29217;52.586;13.442;2023-04-21T06:23:30;14.25;;;8.27;;
43626;SDS011;29217;52.586;13.442;2023-04-21T06:28:28;12.38;;;7.90;;
43626;SDS011;29217;52.586;13.442;2023-04-21T06:30:53;16.67;;;8.88;;
43626;SDS011;29217;52.586;13.442;2023-04-21T06:33:19;16.38;;;9.07;;
43626;SDS011;29217;52.586;13.442;2023-04-21T06:35:44;11.90;;;7.68;;
43626;SDS011;29217;52.586;13.442;2023-04-21T06:38:10;15.85;;;9.07;;
43626;SDS011;29217;52.586;13.442;2023-04-21T06:40:35;17.63;;;8.23;;
43626;SDS011;29217;52.586;13.442;2023-04-21T06:43:01;13.98;;;7.32;;
43626;SDS011;29217;52.586;13.442;2023-04-21T06:45:27;13.18;;;7.28;;
43626;SDS011;29217;52.586;13.442;2023-04-21T06:47:52;14.60;;;8.63;;
43626;SDS011;29217;52.586;13.442;2023-04-21T06:50:18;12.27;;;7.75;;
43626;SDS011;29217;52.586;13.442;2023-04-21T06:52:43;15.02;;;7.90;;
43626;SDS011;29217;52.586;13.442;2023-04-21T06:55:09;12.10;;;7.60;;
43626;SDS011;29217;52.586;13.442;2023-04-21T06:57:35;15.15;;;7.78;;
43626;SDS011;29217;52.586;13.442;2023-04-21T07:00:01;11.05;;;6.70;;
43626;SDS011;29217;52.586;13.442;2023-04-21T07:02:29;13.50;;;7.80;;
43626;SDS011;29217;52.586;13.442;2023-04-21T07:04:55;14.98;;;7.50;;
43626;SDS011;29217;52.586;13.442;2023-04-21T07:07:20;15.50;;;8.63;;
43626;SDS011;29217;52.586;13.442;2023-04-21T07:09:46;15.15;;;8.20;;
43626;SDS011;29217;52.586;13.442;2023-04-21T07:12:12;14.45;;;8.20;;
43626;SDS011;29217;52.586;13.442;2023-04-21T07:14:38;14.73;;;8.35;;
43626;SDS011;29217;52.586;13.442;2023-04-21T07:17:03;14.02;;;8.10;;
43626;SDS011;29217;52.586;13.442;2023-04-21T07:19:29;14.25;;;6.95;;
43626;SDS011;29217;52.586;13.442;2023-04-21T07:21:55;14.30;;;7.90;;
43626;SDS011;29217;52.586;13.442;2023-04-21T07:24:20;14.23;;;7.25;;
43626;SDS011;29217;52.586;13.442;2023-04-21T07:26:46;13.32;;;7.15;;
43626;SDS011;29217;52.586;13.442;2023-04-21T07:29:11;17.00;;;7.80;;
43626;SDS011;29217;52.586;13.442;2023-04-21T07:31:37;16.50;;;7.90;;
43626;SDS011;29217;52.586;13.442;2023-04-21T07:34:02;14.18;;;7.57;;
43626;SDS011;29217;52.586;13.442;2023-04-21T07:36:28;12.45;;;8.07;;
43626;SDS011;29217;52.586;13.442;2023-04-21T07:38:54;18.27;;;8.63;;
43626;SDS011;29217;52.586;13.442;2023-04-21T07:41:20;16.27;;;7.78;;
43626;SDS011;29217;52.586;13.442;2023-04-21T07:43:46;15.57;;;8.20;;
43626;SDS011;29217;52.586;13.442;2023-04-21T07:46:11;16.38;;;7.57;;
43626;SDS011;29217;52.586;13.442;2023-04-21T07:48:37;16.30;;;7.63;;
43626;SDS011;29217;52.586;13.442;2023-04-21T07:51:03;14.95;;;7.50;;
43626;SDS011;29217;52.586;13.442;2023-04-21T07:53:30;13.00;;;7.70;;
43626;SDS011;29217;52.586;13.442;2023-04-21T07:55:55;13.45;;;8.18;;
43626;SDS011;29217;52.586;13.442;2023-04-21T07:58:21;16.52;;;8.00;;
43626;SDS011;29217;52.586;13.442;2023-04-21T08:00:47;18.05;;;7.70;;
43626;SDS011;29217;52.586;13.442;2023-04-21T08:03:13;16.75;;;7.45;;
43626;SDS011;29217;52.586;13.442;2023-04-21T08:05:38;13.75;;;7.22;;
43626;SDS011;29217;52.586;13.442;2023-04-21T08:08:04;13.65;;;7.40;;
43626;SDS011;29217;52.586;13.442;2023-04-21T08:10:29;11.32;;;7.35;;
43626;SDS011;29217;52.586;13.442;2023-04-21T08:12:55;18.52;;;7.97;;
43626;SDS011;29217;52.586;13.442;2023-04-21T08:15:21;11.88;;;7.03;;
43626;SDS011;29217;52.586;13.442;2023-04-21T08:17:46;15.35;;;7.95;;
43626;SDS011;29217;52.586;13.442;2023-04-21T08:20:12;12.20;;;7.60;;
43626;SDS011;29217;52.586;13.442;2023-04-21T08:22:38;14.93;;;7.15;;
43626;SDS011;29217;52.586;13.442;2023-04-21T08:25:04;11.20;;;7.03;;
43626;SDS011;29217;52.586;13.442;2023-04-21T08:27:30;11.52;;;6.95;;
43626;SDS011;29217;52.586;13.442;2023-04-21T08:29:55;13.05;;;7.38;;
43626;SDS011;29217;52.586;13.442;2023-04-21T08:32:21;11.00;;;7.00;;
43626;SDS011;29217;52.586;13.442;2023-04-21T08:34:50;17.90;;;7.90;;
43626;SDS011;29217;52.586;13.442;2023-04-21T08:37:17;12.93;;;7.20;;
43626;SDS011;29217;52.586;13.442;2023-04-21T08:39:44;11.55;;;7.20;;
43626;SDS011;29217;52.586;13.442;2023-04-21T08:42:12;10.60;;;6.85;;
43626;SDS011;29217;52.586;13.442;2023-04-21T08:44:39;15.35;;;6.68;;
43626;SDS011;29217;52.586;13.442;2023-04-21T08:47:05;10.95;;;6.93;;
43626;SDS011;29217;52.586;13.442;2023-04-21T08:49:34;11.52;;;6.90;;
43626;SDS011;29217;52.586;13.442;2023-04-21T08:52:02;11.68;;;7.30;;
43626;SDS011;29217;52.586;13.442;2023-04-21T08:54:27;13.48;;;7.55;;
43626;SDS011;29217;52.586;13.442;2023-04-21T08:56:53;10.15;;;7.22;;
43626;SDS011;29217;52.586;13.442;2023-04-21T08:59:19;13.45;;;7.30;;
43626;SDS011;29217;52.586;13.442;2023-04-21T09:02:05;11.90;;;7.60;;
43626;SDS011;29217;52.586;13.442;2023-04-21T09:04:32;13.70;;;6.57;;
43626;SDS011;29217;52.586;13.442;2023-04-21T09:06:58;9.77;;;6.68;;
43626;SDS011;29217;52.586;13.442;2023-04-21T09:09:23;13.75;;;7.30;;
43626;SDS011;29217;52.586;13.442;2023-04-21T09:11:55;11.23;;;6.63;;
43626;SDS011;29217;52.586;13.442;2023-04-21T09:14:28;9.85;;;6.40;;
43626;SDS011;29217;52.586;13.442;2023-04-21T09:17:00;12.15;;;7.53;;
43626;SDS011;29217;52.586;13.442;2023-04-21T09:19:27;13.63;;;7.43;;
43626;SDS011;29217;52.586;13.442;2023-04-21T09:21:53;11.52;;;6.38;;
43626;SDS011;29217;52.586;13.442;2023-04-21T09:24:19;12.32;;;7.60;;
43626;SDS011;29217;52.586;13.442;2023-04-21T09:26:48;14.15;;;6.25;;
43626;SDS011;29217;52.586;13.442;2023-04-21T09:29:15;13.20;;;6.43;;
43626;SDS011;29217;52.586;13.442;2023-04-21T09:31:42;12.00;;;7.05;;
43626;SDS011;29217;52.586;13.442;2023-04-21T09:37:02;11.50;;;6.45;;
43626;SDS011;29217;52.586;13.442;2023-04-21T09:39:29;11.93;;;6.60;;
43626;SDS011;29217;52.586;13.442;2023-04-21T09:41:56;10.30;;;6.40;;
43626;SDS011;29217;52.586;13.442;2023-04-21T09:44:23;9.07;;;6.10;;
43626;SDS011;29217;52.586;13.442;2023-04-21T09:46:49;9.50;;;6.20;;
43626;SDS011;29217;52.586;13.442;2023-04-21T09:49:18;10.75;;;6.60;;
43626;SDS011;29217;52.586;13.442;2023-04-21T09:51:47;10.20;;;6.38;;
43626;SDS011;29217;52.586;13.442;2023-04-21T09:54:17;13.50;;;6.25;;
43626;SDS011;29217;52.586;13.442;2023-04-21T09:56:45;13.15;;;5.95;;
43626;SDS011;29217;52.586;13.442;2023-04-21T09:59:15;12.70;;;5.70;;
43626;SDS011;29217;52.586;13.442;2023-04-21T10:01:43;11.88;;;6.10;;
43626;SDS011;29217;52.586;13.442;2023-04-21T10:04:12;12.20;;;6.30;;
43626;SDS011;29217;52.586;13.442;2023-04-21T10:06:39;12.27;;;5.90;;
43626;SDS011;29217;52.586;13.442;2023-04-21T10:09:05;10.75;;;5.53;;
43626;SDS011;29217;52.586;13.442;2023-04-21T10:11:34;11.07;;;5.72;;
43626;SDS011;29217;52.586;13.442;2023-04-21T10:14:01;9.13;;;5.35;;
43626;SDS011;29217;52.586;13.442;2023-04-21T10:16:27;13.32;;;5.30;;
43626;SDS011;29217;52.586;13.442;2023-04-21T10:18:53;12.40;;;5.72;;
43626;SDS011;29217;52.586;13.442;2023-04-21T10:21:20;9.48;;;5.60;;
43626;SDS011;29217;52.586;13.442;2023-04-21T10:23:52;7.93;;;4.80;;
43626;SDS011;29217;52.586;13.442;2023-04-21T10:26:23;11.70;;;6.40;;
43626;SDS011;29217;52.586;13.442;2023-04-21T10:28:53;15.45;;;5.20;;
43626;SDS011;29217;52.586;13.442;2023-04-21T10:36:31;10.60;;;5.20;;
43626;SDS011;29217;52.586;13.442;2023-04-21T10:39:02;8.18;;;4.80;;
43626;SDS011;29217;52.586;13.442;2023-04-21T10:41:29;9.23;;;5.22;;
43626;SDS011;29217;52.586;13.442;2023-04-21T10:43:59;11.45;;;5.72;;
43626;SDS011;29217;52.586;13.442;2023-04-21T10:49:07;8.10;;;5.20;;
43626;SDS011;29217;52.586;13.442;2023-04-21T10:54:20;9.20;;;5.32;;
43626;SDS011;29217;52.586;13.442;2023-04-21T10:56:47;11.38;;;5.40;;
43626;SDS011;29217;52.586;13.442;2023-04-21T10:59:14;12.40;;;5.03;;
43626;SDS011;29217;52.586;13.442;2023-04-21T11:01:40;10.05;;;5.13;;
43626;SDS011;29217;52.586;13.442;2023-04-21T11:04:12;8.38;;;5.47;;
43626;SDS011;29217;52.586;13.442;2023-04-21T11:06:38;9.05;;;5.50;;
43626;SDS011;29217;52.586;13.442;2023-04-21T11:09:04;6.97;;;4.95;;
43626;SDS011;29217;52.586;13.442;2023-04-21T11:11:30;9.05;;;4.68;;
43626;SDS011;29217;52.586;13.442;2023-04-21T11:13:59;8.35;;;5.38;;
43626;SDS011;29217;52.586;13.442;2023-04-21T11:16:25;10.45;;;4.70;;
43626;SDS011;29217;52.586;13.442;2023-04-21T11:18:51;7.72;;;5.25;;
43626;SDS011;29217;52.586;13.442;2023-04-21T11:21:18;9.40;;;5.35;;
43626;SDS011;29217;52.586;13.442;2023-04-21T11:23:52;7.78;;;5.13;;
43626;SDS011;29217;52.586;13.442;2023-04-21T11:26:28;9.90;;;5.00;;
43626;SDS011;29217;52.586;13.442;2023-04-21T11:28:55;9.75;;;5.10;;
43626;SDS011;29217;52.586;13.442;2023-04-21T11:31:22;7.25;;;4.97;;
43626;SDS011;29217;52.586;13.442;2023-04-21T11:33:48;10.52;;;5.10;;
43626;SDS011;29217;52.586;13.442;2023-04-21T11:36:14;7.90;;;5.03;;
43626;SDS011;29217;52.586;13.442;2023-04-21T11:38:40;11.90;;;4.85;;
43626;SDS011;29217;52.586;13.442;2023-04-21T11:41:07;8.57;;;4.28;;
43626;SDS011;29217;52.586;13.442;2023-04-21T11:43:34;7.93;;;4.82;;
43626;SDS011;29217;52.586;13.442;2023-04-21T11:46:15;8.40;;;4.83;;
43626;SDS011;29217;52.586;13.442;2023-04-21T11:48:42;7.80;;;4.88;;
43626;SDS011;29217;52.586;13.442;2023-04-21T11:51:17;6.28;;;4.45;;
43626;SDS011;29217;52.586;13.442;2023-04-21T11:53:47;7.70;;;4.80;;
43626;SDS011;29217;52.586;13.442;2023-04-21T11:56:16;7.57;;;4.68;;
43626;SDS011;29217;52.586;13.442;2023-04-21T11:58:43;6.43;;;4.85;;
43626;SDS011;29217;52.586;13.442;2023-04-21T12:01:10;7.95;;;5.32;;
43626;SDS011;29217;52.586;13.442;2023-04-21T12:03:36;6.88;;;4.80;;
43626;SDS011;29217;52.586;13.442;2023-04-21T12:06:02;8.57;;;4.72;;
43626;SDS011;29217;52.586;13.442;2023-04-21T12:08:28;10.10;;;4.97;;
43626;SDS011;29217;52.586;13.442;2023-04-21T12:10:54;8.52;;;4.93;;
43626;SDS011;29217;52.586;13.442;2023-04-21T12:13:21;7.82;;;5.22;;
43626;SDS011;29217;52.586;13.442;2023-04-21T12:15:47;6.68;;;4.70;;
43626;SDS011;29217;52.586;13.442;2023-04-21T12:18:14;10.40;;;5.32;;
43626;SDS011;29217;52.586;13.442;2023-04-21T12:20:49;8.80;;;5.25;;
43626;SDS011;29217;52.586;13.442;2023-04-21T12:23:17;8.45;;;5.40;;
43626;SDS011;29217;52.586;13.442;2023-04-21T12:25:43;10.25;;;4.97;;
43626;SDS011;29217;52.586;13.442;2023-04-21T12:28:10;11.95;;;5.03;;
43626;SDS011;29217;52.586;13.442;2023-04-21T12:30:36;8.55;;;4.75;;
43626;SDS011;29217;52.586;13.442;2023-04-21T12:33:02;14.63;;;5.18;;
43626;SDS011;29217;52.586;13.442;2023-04-21T12:35:28;6.45;;;4.47;;
43626;SDS011;29217;52.586;13.442;2023-04-21T12:37:57;10.25;;;4.90;;
43626;SDS011;29217;52.586;13.442;2023-04-21T12:40:23;11.60;;;5.18;;
43626;SDS011;29217;52.586;13.442;2023-04-21T12:42:49;10.32;;;5.47;;
43626;SDS011;29217;52.586;13.442;2023-04-21T12:45:15;16.95;;;5.35;;
43626;SDS011;29217;52.586;13.442;2023-04-21T12:47:41;10.43;;;4.80;;
43626;SDS011;29217;52.586;13.442;2023-04-21T12:50:07;6.63;;;4.40;;
43626;SDS011;29217;52.586;13.442;2023-04-21T12:52:35;10.25;;;4.80;;
43626;SDS011;29217;52.586;13.442;2023-04-21T12:55:01;10.95;;;4.80;;
43626;SDS011;29217;52.586;13.442;2023-04-21T12:57:27;9.43;;;4.65;;
43626;SDS011;29217;52.586;13.442;2023-04-21T12:59:53;6.72;;;4.43;;
43626;SDS011;29217;52.586;13.442;2023-04-21T13:02:19;8.63;;;4.35;;
43626;SDS011;29217;52.586;13.442;2023-04-21T13:04:46;12.15;;;4.97;;
43626;SDS011;29217;52.586;13.442;2023-04-21T13:07:12;7.00;;;4.43;;
43626;SDS011;29217;52.586;13.442;2023-04-21T13:09:40;7.15;;;4.38;;
43626;SDS011;29217;52.586;13.442;2023-04-21T13:12:06;9.82;;;4.75;;
43626;SDS011;29217;52.586;13.442;2023-04-21T13:14:32;7.07;;;4.53;;
43626;SDS011;29217;52.586;13.442;2023-04-21T13:16:58;6.45;;;4.70;;
43626;SDS011;29217;52.586;13.442;2023-04-21T13:19:24;6.20;;;4.32;;
43626;SDS011;29217;52.586;13.442;2023-04-21T13:21:50;8.75;;;4.18;;
43626;SDS011;29217;52.586;13.442;2023-04-21T13:24:17;6.63;;;4.20;;
43626;SDS011;29217;52.586;13.442;2023-04-21T13:26:43;6.05;;;4.15;;
43626;SDS011;29217;52.586;13.442;2023-04-21T13:29:09;7.80;;;4.22;;
43626;SDS011;29217;52.586;13.442;2023-04-21T13:31:35;9.38;;;4.50;;
43626;SDS011;29217;52.586;13.442;2023-04-21T13:34:01;7.18;;;4.47;;
43626;SDS011;29217;52.586;13.442;2023-04-21T13:36:27;8.82;;;4.30;;
43626;SDS011;29217;52.586;13.442;2023-04-21T13:38:53;8.68;;;4.90;;
43626;SDS011;29217;52.586;13.442;2023-04-21T13:41:20;11.82;;;4.90;;
43626;SDS011;29217;52.586;13.442;2023-04-21T13:43:46;6.20;;;4.07;;
43626;SDS011;29217;52.586;13.442;2023-04-21T13:46:12;9.50;;;4.18;;
43626;SDS011;29217;52.586;13.442;2023-04-21T13:48:38;8.18;;;4.05;;
43626;SDS011;29217;52.586;13.442;2023-04-21T13:51:04;8.43;;;4.28;;
43626;SDS011;29217;52.586;13.442;2023-04-21T13:53:31;7.38;;;4.35;;
43626;SDS011;29217;52.586;13.442;2023-04-21T13:55:57;10.00;;;4.45;;
43626;SDS011;29217;52.586;13.442;2023-04-21T13:58:23;8.30;;;4.15;;
43626;SDS011;29217;52.586;13.442;2023-04-21T14:00:49;6.65;;;3.90;;
43626;SDS011;29217;52.586;13.442;2023-04-21T14:03:15;12.85;;;4.38;;
43626;SDS011;29217;52.586;13.442;2023-04-21T14:05:41;7.32;;;4.40;;
43626;SDS011;29217;52.586;13.442;2023-04-21T14:08:07;7.93;;;4.55;;
43626;SDS011;29217;52.586;13.442;2023-04-21T14:10:33;6.53;;;4.10;;
43626;SDS011;29217;52.586;13.442;2023-04-21T14:12:59;9.10;;;4.30;;
43626;SDS011;29217;52.586;13.442;2023-04-21T14:15:25;6.05;;;4.07;;
43626;SDS011;29217;52.586;13.442;2023-04-21T14:17:51;5.40;;;4.30;;
43626;SDS011;29217;52.586;13.442;2023-04-21T14:20:20;9.95;;;4.70;;
43626;SDS011;29217;52.586;13.442;2023-04-21T14:22:47;9.88;;;4.50;;
43626;SDS011;29217;52.586;13.442;2023-04-21T14:25:13;6.40;;;3.97;;
43626;SDS011;29217;52.586;13.442;2023-04-21T14:27:39;9.57;;;4.50;;
43626;SDS011;29217;52.586;13.442;2023-04-21T14:30:05;11.80;;;3.88;;
43626;SDS011;29217;52.586;13.442;2023-04-21T14:32:31;6.10;;;3.97;;
43626;SDS011;29217;52.586;13.442;2023-04-21T14:34:58;5.45;;;3.75;;